TAF Text Data
IDs:
Format:
Raw Decoded Include METAR

Data at: 1220 UTC 10 Jul 2020

KBHM 101140Z 1012/1112 26004KT P6SM FEW009 SCT100
  TEMPO 1012/1014 BKN009 BKN100
  FM101600 30011KT P6SM SCT045
  FM110400 32005KT P6SM FEW250